Aktuální počasí v Česku a ve světě - METAR

Seznam meteostanic umístěných nejčasteji na letišti v ČR a ve světě

Vyhledat místa podle abecedy:
A B C D E F G H I J K L M N O P Q R S T U V W X Y Z

Filtrovat:

ID stanice:
a/nebo
Název místa (fulltext):
 
Místo (ID)Naposledy načteno 
Holešov (Holesov) 20.06.2024 20:00 UTC Zobrazit data
Místo: Holešov
Teplota: 19 °C (pocitová: 18.5 °C)
Vítr: 2 m/s z(e) 40°
Počasí: skoro zataženo
Dohlednost: 40 km
Zákl. oblačnosti: 1/8 3000 m;7/8 7800 m
Vlhkost: 73%
Hamburg (EDDH) 20.06.2024 18:50 UTC Zobrazit METAR
EDDH 201850Z AUTO 05004KT CAVOK 20/10 Q1017 NOSIG
Hannover (EDDV) 20.06.2024 19:50 UTC Zobrazit METAR
EDDV 201950Z AUTO 09005KT 9999 OVC042 19/13 Q1017 NOSIG
Hanoi (VVNB) 20.06.2024 20:00 UTC Zobrazit METAR
VVNB 202000Z 11006KT 7000 SCT021 30/28 Q1001 NOSIG
Harare (FVHA) 13.09.2018 03:00 UTC Zobrazit METAR
FVHA 130300Z 07008KT CAVOK 14/07 Q1022 NOSIG
Havana (MUHA) 20.06.2024 17:50 UTC Zobrazit METAR
MUHA 201750Z 12009KT 080V170 9000 SCT030 32/24 Q1015
Helsinki (EFHK) 20.06.2024 19:50 UTC Zobrazit METAR
EFHK 201950Z 22007KT CAVOK 15/11 Q1008 NOSIG
Hong Kong (VHHH) 20.06.2024 20:00 UTC Zobrazit METAR
VHHH 202000Z 16006KT 110V200 9999 FEW012 30/25 Q1005 NOSIG
Honiara (AGGH) 20.06.2024 19:00 UTC Zobrazit METAR
AGGH 201900Z 20002KT 9999 FEW013 SCT024 OVC100 23/22 Q1009
Horta (LPHR) 20.06.2024 20:00 UTC Zobrazit METAR
LPHR 202000Z 22003KT 200V260 9999 FEW020 21/15 Q1028
Reklama